sensor_id;sensor_type;location;lat;lon;timestamp;temperature;humidity
43665;DHT22;29263;48.172;11.484;2023-05-13T00:01:14;10.50;99.90
43665;DHT22;29263;48.172;11.484;2023-05-13T00:03:40;10.50;99.90
43665;DHT22;29263;48.172;11.484;2023-05-13T00:06:06;10.50;99.90
43665;DHT22;29263;48.172;11.484;2023-05-13T00:08:32;10.40;99.90
43665;DHT22;29263;48.172;11.484;2023-05-13T00:10:57;10.40;99.90
43665;DHT22;29263;48.172;11.484;2023-05-13T00:13:23;10.40;99.90
43665;DHT22;29263;48.172;11.484;2023-05-13T00:15:48;10.50;99.90
43665;DHT22;29263;48.172;11.484;2023-05-13T00:18:14;10.50;99.90
43665;DHT22;29263;48.172;11.484;2023-05-13T00:20:40;10.50;99.90
43665;DHT22;29263;48.172;11.484;2023-05-13T00:23:05;10.40;99.90
43665;DHT22;29263;48.172;11.484;2023-05-13T00:25:32;10.40;99.90
43665;DHT22;29263;48.172;11.484;2023-05-13T00:27:57;10.40;99.90
43665;DHT22;29263;48.172;11.484;2023-05-13T00:30:23;10.40;99.90
43665;DHT22;29263;48.172;11.484;2023-05-13T00:32:49;10.40;99.90
43665;DHT22;29263;48.172;11.484;2023-05-13T00:35:15;10.40;99.90
43665;DHT22;29263;48.172;11.484;2023-05-13T00:37:40;10.40;99.90
43665;DHT22;29263;48.172;11.484;2023-05-13T00:40:20;10.40;99.90
43665;DHT22;29263;48.172;11.484;2023-05-13T00:42:46;10.40;99.90
43665;DHT22;29263;48.172;11.484;2023-05-13T00:45:11;10.40;99.90
43665;DHT22;29263;48.172;11.484;2023-05-13T00:47:39;10.40;99.90
43665;DHT22;29263;48.172;11.484;2023-05-13T00:50:06;10.40;99.90
43665;DHT22;29263;48.172;11.484;2023-05-13T00:52:32;10.40;99.90
43665;DHT22;29263;48.172;11.484;2023-05-13T00:54:58;10.30;99.90
43665;DHT22;29263;48.172;11.484;2023-05-13T00:57:24;10.40;99.90
43665;DHT22;29263;48.172;11.484;2023-05-13T00:59:50;10.40;99.90
43665;DHT22;29263;48.172;11.484;2023-05-13T01:10:10;10.30;99.90
43665;DHT22;29263;48.172;11.484;2023-05-13T01:12:40;10.30;99.90
43665;DHT22;29263;48.172;11.484;2023-05-13T01:15:14;10.30;99.90
43665;DHT22;29263;48.172;11.484;2023-05-13T01:17:48;10.30;99.90
43665;DHT22;29263;48.172;11.484;2023-05-13T01:20:18;10.30;99.90
43665;DHT22;29263;48.172;11.484;2023-05-13T01:22:45;10.30;99.90
43665;DHT22;29263;48.172;11.484;2023-05-13T01:25:10;10.30;99.90
43665;DHT22;29263;48.172;11.484;2023-05-13T01:27:36;10.30;99.90
43665;DHT22;29263;48.172;11.484;2023-05-13T01:30:02;10.30;99.90
43665;DHT22;29263;48.172;11.484;2023-05-13T01:32:28;10.30;99.90
43665;DHT22;29263;48.172;11.484;2023-05-13T01:34:54;10.20;99.90
43665;DHT22;29263;48.172;11.484;2023-05-13T01:37:20;10.20;99.90
43665;DHT22;29263;48.172;11.484;2023-05-13T01:39:46;10.20;99.90
43665;DHT22;29263;48.172;11.484;2023-05-13T01:42:13;10.20;99.90
43665;DHT22;29263;48.172;11.484;2023-05-13T01:44:39;10.20;99.90
43665;DHT22;29263;48.172;11.484;2023-05-13T01:47:04;10.10;99.90
43665;DHT22;29263;48.172;11.484;2023-05-13T01:49:30;10.20;99.90
43665;DHT22;29263;48.172;11.484;2023-05-13T01:51:56;10.10;99.90
43665;DHT22;29263;48.172;11.484;2023-05-13T01:54:22;10.20;99.90
43665;DHT22;29263;48.172;11.484;2023-05-13T01:56:48;10.10;99.90
43665;DHT22;29263;48.172;11.484;2023-05-13T01:59:13;10.10;99.90
43665;DHT22;29263;48.172;11.484;2023-05-13T02:01:39;10.00;99.90
43665;DHT22;29263;48.172;11.484;2023-05-13T02:04:05;10.20;99.90
43665;DHT22;29263;48.172;11.484;2023-05-13T02:06:30;10.10;99.90
43665;DHT22;29263;48.172;11.484;2023-05-13T02:08:56;10.10;99.90
43665;DHT22;29263;48.172;11.484;2023-05-13T02:11:22;10.10;99.90
43665;DHT22;29263;48.172;11.484;2023-05-13T02:13:47;10.10;99.90
43665;DHT22;29263;48.172;11.484;2023-05-13T02:16:15;10.10;99.90
43665;DHT22;29263;48.172;11.484;2023-05-13T02:18:41;10.10;99.90
43665;DHT22;29263;48.172;11.484;2023-05-13T02:21:07;10.00;99.90
43665;DHT22;29263;48.172;11.484;2023-05-13T02:23:32;10.00;99.90
43665;DHT22;29263;48.172;11.484;2023-05-13T02:25:58;10.00;99.90
43665;DHT22;29263;48.172;11.484;2023-05-13T02:28:24;10.10;99.90
43665;DHT22;29263;48.172;11.484;2023-05-13T02:30:49;10.10;99.90
43665;DHT22;29263;48.172;11.484;2023-05-13T02:33:15;10.10;99.90
43665;DHT22;29263;48.172;11.484;2023-05-13T02:35:41;10.10;99.90
43665;DHT22;29263;48.172;11.484;2023-05-13T02:38:09;10.10;99.90
43665;DHT22;29263;48.172;11.484;2023-05-13T02:40:35;10.00;99.90
43665;DHT22;29263;48.172;11.484;2023-05-13T02:43:01;10.10;99.90
43665;DHT22;29263;48.172;11.484;2023-05-13T02:45:27;10.00;99.90
43665;DHT22;29263;48.172;11.484;2023-05-13T02:47:53;10.00;99.90
43665;DHT22;29263;48.172;11.484;2023-05-13T02:50:18;10.00;99.90
43665;DHT22;29263;48.172;11.484;2023-05-13T02:52:44;10.00;99.90
43665;DHT22;29263;48.172;11.484;2023-05-13T02:55:10;10.00;99.90
43665;DHT22;29263;48.172;11.484;2023-05-13T02:57:35;10.00;99.90
43665;DHT22;29263;48.172;11.484;2023-05-13T03:00:03;10.10;99.90
43665;DHT22;29263;48.172;11.484;2023-05-13T03:02:30;10.00;99.90
43665;DHT22;29263;48.172;11.484;2023-05-13T03:04:56;10.00;99.90
43665;DHT22;29263;48.172;11.484;2023-05-13T03:07:23;10.00;99.90
43665;DHT22;29263;48.172;11.484;2023-05-13T03:09:49;10.00;99.90
43665;DHT22;29263;48.172;11.484;2023-05-13T03:12:15;10.00;99.90
43665;DHT22;29263;48.172;11.484;2023-05-13T03:14:41;10.00;99.90
43665;DHT22;29263;48.172;11.484;2023-05-13T03:17:09;10.00;99.90
43665;DHT22;29263;48.172;11.484;2023-05-13T03:19:36;10.00;99.90
43665;DHT22;29263;48.172;11.484;2023-05-13T03:22:02;10.00;99.90
43665;DHT22;29263;48.172;11.484;2023-05-13T03:24:28;10.00;99.90
43665;DHT22;29263;48.172;11.484;2023-05-13T03:26:54;10.00;99.90
43665;DHT22;29263;48.172;11.484;2023-05-13T03:29:20;10.00;99.90
43665;DHT22;29263;48.172;11.484;2023-05-13T03:31:46;10.00;99.90
43665;DHT22;29263;48.172;11.484;2023-05-13T03:34:11;9.90;99.90
43665;DHT22;29263;48.172;11.484;2023-05-13T03:36:37;10.00;99.90
43665;DHT22;29263;48.172;11.484;2023-05-13T03:39:02;10.00;99.90
43665;DHT22;29263;48.172;11.484;2023-05-13T03:41:28;10.00;99.90
43665;DHT22;29263;48.172;11.484;2023-05-13T03:43:54;10.00;99.90
43665;DHT22;29263;48.172;11.484;2023-05-13T03:46:20;10.00;99.90
43665;DHT22;29263;48.172;11.484;2023-05-13T03:48:46;10.00;99.90
43665;DHT22;29263;48.172;11.484;2023-05-13T03:51:11;10.00;99.90
43665;DHT22;29263;48.172;11.484;2023-05-13T03:53:37;10.00;99.90
43665;DHT22;29263;48.172;11.484;2023-05-13T03:56:03;10.00;99.90
43665;DHT22;29263;48.172;11.484;2023-05-13T03:58:29;10.00;99.90
43665;DHT22;29263;48.172;11.484;2023-05-13T04:00:55;9.90;99.90
43665;DHT22;29263;48.172;11.484;2023-05-13T04:03:21;9.90;99.90
43665;DHT22;29263;48.172;11.484;2023-05-13T04:05:47;10.00;99.90
43665;DHT22;29263;48.172;11.484;2023-05-13T04:08:13;10.00;99.90
43665;DHT22;29263;48.172;11.484;2023-05-13T04:10:39;9.90;99.90
43665;DHT22;29263;48.172;11.484;2023-05-13T04:13:06;9.90;99.90
43665;DHT22;29263;48.172;11.484;2023-05-13T04:15:32;9.90;99.90
43665;DHT22;29263;48.172;11.484;2023-05-13T04:17:58;9.90;99.90
43665;DHT22;29263;48.172;11.484;2023-05-13T04:20:23;9.90;99.90
43665;DHT22;29263;48.172;11.484;2023-05-13T04:22:49;9.90;99.90
43665;DHT22;29263;48.172;11.484;2023-05-13T04:25:15;9.90;99.90
43665;DHT22;29263;48.172;11.484;2023-05-13T04:27:41;9.80;99.90
43665;DHT22;29263;48.172;11.484;2023-05-13T04:30:07;9.90;99.90
43665;DHT22;29263;48.172;11.484;2023-05-13T04:32:33;9.80;99.90
43665;DHT22;29263;48.172;11.484;2023-05-13T04:34:58;9.90;99.90
43665;DHT22;29263;48.172;11.484;2023-05-13T04:37:24;9.90;99.90
43665;DHT22;29263;48.172;11.484;2023-05-13T04:39:50;9.80;99.90
43665;DHT22;29263;48.172;11.484;2023-05-13T04:42:15;9.80;99.90
43665;DHT22;29263;48.172;11.484;2023-05-13T04:44:42;9.80;99.90
43665;DHT22;29263;48.172;11.484;2023-05-13T04:47:07;9.80;99.90
43665;DHT22;29263;48.172;11.484;2023-05-13T04:49:33;9.80;99.90
43665;DHT22;29263;48.172;11.484;2023-05-13T04:52:03;9.80;99.90
43665;DHT22;29263;48.172;11.484;2023-05-13T04:54:28;9.80;99.90
43665;DHT22;29263;48.172;11.484;2023-05-13T04:56:55;9.80;99.90
43665;DHT22;29263;48.172;11.484;2023-05-13T04:59:21;9.80;99.90
43665;DHT22;29263;48.172;11.484;2023-05-13T05:01:47;9.70;99.90
43665;DHT22;29263;48.172;11.484;2023-05-13T05:04:13;9.70;99.90
43665;DHT22;29263;48.172;11.484;2023-05-13T05:06:38;9.60;99.90
43665;DHT22;29263;48.172;11.484;2023-05-13T05:09:04;9.60;99.90
43665;DHT22;29263;48.172;11.484;2023-05-13T05:11:30;9.60;99.90
43665;DHT22;29263;48.172;11.484;2023-05-13T05:13:55;9.60;99.90
43665;DHT22;29263;48.172;11.484;2023-05-13T05:16:22;9.60;99.90
43665;DHT22;29263;48.172;11.484;2023-05-13T05:18:48;9.60;99.90
43665;DHT22;29263;48.172;11.484;2023-05-13T05:21:13;9.60;99.90
43665;DHT22;29263;48.172;11.484;2023-05-13T05:23:39;9.60;99.90
43665;DHT22;29263;48.172;11.484;2023-05-13T05:26:05;9.70;99.90
43665;DHT22;29263;48.172;11.484;2023-05-13T05:28:31;9.70;99.90
43665;DHT22;29263;48.172;11.484;2023-05-13T05:30:56;9.70;99.90
43665;DHT22;29263;48.172;11.484;2023-05-13T05:33:22;9.70;99.90
43665;DHT22;29263;48.172;11.484;2023-05-13T05:35:48;9.70;99.90
43665;DHT22;29263;48.172;11.484;2023-05-13T05:38:14;9.70;99.90
43665;DHT22;29263;48.172;11.484;2023-05-13T05:40:43;9.80;99.90
43665;DHT22;29263;48.172;11.484;2023-05-13T05:43:09;9.80;99.90
43665;DHT22;29263;48.172;11.484;2023-05-13T05:45:38;9.90;99.90
43665;DHT22;29263;48.172;11.484;2023-05-13T05:48:05;9.80;99.90
43665;DHT22;29263;48.172;11.484;2023-05-13T05:50:31;9.80;99.90
43665;DHT22;29263;48.172;11.484;2023-05-13T05:52:58;9.70;99.90
43665;DHT22;29263;48.172;11.484;2023-05-13T05:55:26;9.70;99.90
43665;DHT22;29263;48.172;11.484;2023-05-13T05:57:56;9.70;99.90
43665;DHT22;29263;48.172;11.484;2023-05-13T06:00:22;9.70;99.90
43665;DHT22;29263;48.172;11.484;2023-05-13T06:02:47;9.70;99.90
43665;DHT22;29263;48.172;11.484;2023-05-13T06:05:14;9.70;99.90
43665;DHT22;29263;48.172;11.484;2023-05-13T06:07:39;9.70;99.90
43665;DHT22;29263;48.172;11.484;2023-05-13T06:10:06;9.80;99.90
43665;DHT22;29263;48.172;11.484;2023-05-13T06:12:32;9.80;99.90
43665;DHT22;29263;48.172;11.484;2023-05-13T06:14:58;9.80;99.90
43665;DHT22;29263;48.172;11.484;2023-05-13T06:17:24;9.90;99.90
43665;DHT22;29263;48.172;11.484;2023-05-13T06:19:50;9.90;99.90
43665;DHT22;29263;48.172;11.484;2023-05-13T06:22:15;9.90;99.90
43665;DHT22;29263;48.172;11.484;2023-05-13T06:24:41;10.00;99.90
43665;DHT22;29263;48.172;11.484;2023-05-13T06:27:09;9.90;99.90
43665;DHT22;29263;48.172;11.484;2023-05-13T06:29:36;10.00;99.90
43665;DHT22;29263;48.172;11.484;2023-05-13T06:32:02;10.00;99.90
43665;DHT22;29263;48.172;11.484;2023-05-13T06:34:27;10.00;99.90
43665;DHT22;29263;48.172;11.484;2023-05-13T06:36:53;10.00;99.90
43665;DHT22;29263;48.172;11.484;2023-05-13T06:39:18;10.00;99.90
43665;DHT22;29263;48.172;11.484;2023-05-13T06:41:44;10.00;99.90
43665;DHT22;29263;48.172;11.484;2023-05-13T06:44:10;10.00;99.90
43665;DHT22;29263;48.172;11.484;2023-05-13T06:46:35;10.00;99.90
43665;DHT22;29263;48.172;11.484;2023-05-13T06:49:01;10.00;99.90
43665;DHT22;29263;48.172;11.484;2023-05-13T06:51:27;9.90;99.90
43665;DHT22;29263;48.172;11.484;2023-05-13T06:53:53;10.00;99.90
43665;DHT22;29263;48.172;11.484;2023-05-13T06:56:19;9.90;99.90
43665;DHT22;29263;48.172;11.484;2023-05-13T06:58:47;9.90;99.90
43665;DHT22;29263;48.172;11.484;2023-05-13T07:01:13;9.90;99.90
43665;DHT22;29263;48.172;11.484;2023-05-13T07:03:40;10.00;99.90
43665;DHT22;29263;48.172;11.484;2023-05-13T07:06:05;10.00;99.90
43665;DHT22;29263;48.172;11.484;2023-05-13T07:08:31;10.10;99.90
43665;DHT22;29263;48.172;11.484;2023-05-13T07:10:57;10.10;99.90
43665;DHT22;29263;48.172;11.484;2023-05-13T07:13:22;10.10;99.90
43665;DHT22;29263;48.172;11.484;2023-05-13T07:15:48;10.00;99.90
43665;DHT22;29263;48.172;11.484;2023-05-13T07:18:14;10.10;99.90
43665;DHT22;29263;48.172;11.484;2023-05-13T07:20:40;10.20;99.90
43665;DHT22;29263;48.172;11.484;2023-05-13T07:23:06;10.20;99.90
43665;DHT22;29263;48.172;11.484;2023-05-13T07:25:35;10.20;99.90
43665;DHT22;29263;48.172;11.484;2023-05-13T07:28:01;10.30;99.90
43665;DHT22;29263;48.172;11.484;2023-05-13T07:30:27;10.30;99.90
43665;DHT22;29263;48.172;11.484;2023-05-13T07:32:53;10.30;99.90
43665;DHT22;29263;48.172;11.484;2023-05-13T07:35:18;10.30;99.90
43665;DHT22;29263;48.172;11.484;2023-05-13T07:37:44;10.30;99.90
43665;DHT22;29263;48.172;11.484;2023-05-13T07:40:10;10.30;99.90
43665;DHT22;29263;48.172;11.484;2023-05-13T07:42:36;10.30;99.90
43665;DHT22;29263;48.172;11.484;2023-05-13T07:45:02;10.30;99.90
43665;DHT22;29263;48.172;11.484;2023-05-13T07:47:28;10.30;99.90
43665;DHT22;29263;48.172;11.484;2023-05-13T07:49:56;10.30;99.90
43665;DHT22;29263;48.172;11.484;2023-05-13T07:52:21;10.30;99.90
43665;DHT22;29263;48.172;11.484;2023-05-13T07:54:47;10.30;99.90
43665;DHT22;29263;48.172;11.484;2023-05-13T07:57:13;10.40;99.90
43665;DHT22;29263;48.172;11.484;2023-05-13T07:59:39;10.40;99.90
43665;DHT22;29263;48.172;11.484;2023-05-13T08:02:05;10.40;99.90
43665;DHT22;29263;48.172;11.484;2023-05-13T08:04:31;10.40;99.90
43665;DHT22;29263;48.172;11.484;2023-05-13T08:06:56;10.50;99.90
43665;DHT22;29263;48.172;11.484;2023-05-13T08:09:22;10.40;99.90
43665;DHT22;29263;48.172;11.484;2023-05-13T08:11:48;10.50;99.90
43665;DHT22;29263;48.172;11.484;2023-05-13T08:14:14;10.50;99.90
43665;DHT22;29263;48.172;11.484;2023-05-13T08:16:40;10.40;99.90
43665;DHT22;29263;48.172;11.484;2023-05-13T08:19:06;10.40;99.90
43665;DHT22;29263;48.172;11.484;2023-05-13T08:21:31;10.50;99.90
43665;DHT22;29263;48.172;11.484;2023-05-13T08:23:57;10.50;99.90
43665;DHT22;29263;48.172;11.484;2023-05-13T08:26:23;10.50;99.90
43665;DHT22;29263;48.172;11.484;2023-05-13T08:28:48;10.60;99.90
43665;DHT22;29263;48.172;11.484;2023-05-13T08:31:14;10.60;99.90
43665;DHT22;29263;48.172;11.484;2023-05-13T08:33:39;10.60;99.90
43665;DHT22;29263;48.172;11.484;2023-05-13T08:36:07;10.70;99.90
43665;DHT22;29263;48.172;11.484;2023-05-13T08:38:33;10.60;99.90
43665;DHT22;29263;48.172;11.484;2023-05-13T08:40:59;10.70;99.90
43665;DHT22;29263;48.172;11.484;2023-05-13T08:43:26;10.60;99.90
43665;DHT22;29263;48.172;11.484;2023-05-13T08:45:53;10.60;99.90
43665;DHT22;29263;48.172;11.484;2023-05-13T08:48:21;10.60;99.90
43665;DHT22;29263;48.172;11.484;2023-05-13T08:50:48;10.60;99.90
43665;DHT22;29263;48.172;11.484;2023-05-13T08:53:34;10.70;99.90
43665;DHT22;29263;48.172;11.484;2023-05-13T08:56:00;10.80;99.90
43665;DHT22;29263;48.172;11.484;2023-05-13T08:58:26;10.90;99.90
43665;DHT22;29263;48.172;11.484;2023-05-13T09:00:52;11.10;99.90
43665;DHT22;29263;48.172;11.484;2023-05-13T09:03:19;11.10;99.90
43665;DHT22;29263;48.172;11.484;2023-05-13T09:05:46;11.20;99.90
43665;DHT22;29263;48.172;11.484;2023-05-13T09:08:12;11.20;99.90
43665;DHT22;29263;48.172;11.484;2023-05-13T09:10:38;11.20;99.90
43665;DHT22;29263;48.172;11.484;2023-05-13T09:13:04;11.30;99.90
43665;DHT22;29263;48.172;11.484;2023-05-13T09:15:30;11.30;99.90
43665;DHT22;29263;48.172;11.484;2023-05-13T09:18:04;11.30;99.90
43665;DHT22;29263;48.172;11.484;2023-05-13T09:20:31;11.40;99.90
43665;DHT22;29263;48.172;11.484;2023-05-13T09:23:08;11.40;99.90
43665;DHT22;29263;48.172;11.484;2023-05-13T09:25:35;11.40;99.90
43665;DHT22;29263;48.172;11.484;2023-05-13T09:28:03;11.50;99.90
43665;DHT22;29263;48.172;11.484;2023-05-13T09:30:36;11.50;99.90
43665;DHT22;29263;48.172;11.484;2023-05-13T09:35:32;11.40;99.90
43665;DHT22;29263;48.172;11.484;2023-05-13T09:37:58;11.40;99.90
43665;DHT22;29263;48.172;11.484;2023-05-13T09:40:24;11.40;99.90
43665;DHT22;29263;48.172;11.484;2023-05-13T09:42:49;11.40;99.90
43665;DHT22;29263;48.172;11.484;2023-05-13T09:45:16;11.40;99.90
43665;DHT22;29263;48.172;11.484;2023-05-13T09:47:42;11.50;99.90
43665;DHT22;29263;48.172;11.484;2023-05-13T09:50:11;11.40;99.90
43665;DHT22;29263;48.172;11.484;2023-05-13T09:52:37;11.30;99.90
43665;DHT22;29263;48.172;11.484;2023-05-13T09:55:07;11.30;99.90
43665;DHT22;29263;48.172;11.484;2023-05-13T09:57:33;11.30;99.90
43665;DHT22;29263;48.172;11.484;2023-05-13T10:00:03;11.30;99.90
43665;DHT22;29263;48.172;11.484;2023-05-13T10:02:30;11.40;99.90
43665;DHT22;29263;48.172;11.484;2023-05-13T10:04:56;11.30;99.90
43665;DHT22;29263;48.172;11.484;2023-05-13T10:07:23;11.30;99.90
43665;DHT22;29263;48.172;11.484;2023-05-13T10:09:53;11.40;99.90
43665;DHT22;29263;48.172;11.484;2023-05-13T10:12:24;11.30;99.90
43665;DHT22;29263;48.172;11.484;2023-05-13T10:14:50;11.30;99.90
43665;DHT22;29263;48.172;11.484;2023-05-13T10:17:21;11.20;99.90
43665;DHT22;29263;48.172;11.484;2023-05-13T10:19:52;11.10;99.90
43665;DHT22;29263;48.172;11.484;2023-05-13T10:22:29;11.10;99.90
43665;DHT22;29263;48.172;11.484;2023-05-13T10:24:57;11.20;99.90
43665;DHT22;29263;48.172;11.484;2023-05-13T10:27:27;11.30;99.90
43665;DHT22;29263;48.172;11.484;2023-05-13T10:29:58;11.40;99.90
43665;DHT22;29263;48.172;11.484;2023-05-13T10:32:25;11.40;99.90
43665;DHT22;29263;48.172;11.484;2023-05-13T10:34:56;11.50;99.90
43665;DHT22;29263;48.172;11.484;2023-05-13T10:40:25;11.50;99.90
43665;DHT22;29263;48.172;11.484;2023-05-13T10:43:18;11.50;99.90
43665;DHT22;29263;48.172;11.484;2023-05-13T10:45:46;11.60;99.90
43665;DHT22;29263;48.172;11.484;2023-05-13T10:48:12;11.60;99.90
43665;DHT22;29263;48.172;11.484;2023-05-13T10:50:38;11.70;99.90
43665;DHT22;29263;48.172;11.484;2023-05-13T10:53:09;11.70;99.90
43665;DHT22;29263;48.172;11.484;2023-05-13T10:55:44;11.90;99.90
43665;DHT22;29263;48.172;11.484;2023-05-13T10:58:12;12.00;99.90
43665;DHT22;29263;48.172;11.484;2023-05-13T11:00:40;12.10;99.90
43665;DHT22;29263;48.172;11.484;2023-05-13T11:05:38;12.20;99.90
43665;DHT22;29263;48.172;11.484;2023-05-13T11:08:04;12.20;99.90
43665;DHT22;29263;48.172;11.484;2023-05-13T11:10:30;12.10;99.90
43665;DHT22;29263;48.172;11.484;2023-05-13T11:15:48;12.10;99.90
43665;DHT22;29263;48.172;11.484;2023-05-13T11:18:15;12.20;99.90
43665;DHT22;29263;48.172;11.484;2023-05-13T11:20:44;12.10;99.90
43665;DHT22;29263;48.172;11.484;2023-05-13T11:23:16;12.00;99.90
43665;DHT22;29263;48.172;11.484;2023-05-13T11:25:45;12.00;99.90
43665;DHT22;29263;48.172;11.484;2023-05-13T11:28:15;11.90;99.90
43665;DHT22;29263;48.172;11.484;2023-05-13T11:30:52;11.90;99.90
43665;DHT22;29263;48.172;11.484;2023-05-13T11:33:19;11.90;99.90
43665;DHT22;29263;48.172;11.484;2023-05-13T11:35:53;11.80;99.90
43665;DHT22;29263;48.172;11.484;2023-05-13T11:38:24;11.80;99.90
43665;DHT22;29263;48.172;11.484;2023-05-13T11:40:49;11.80;99.90
43665;DHT22;29263;48.172;11.484;2023-05-13T11:43:19;11.90;99.90
43665;DHT22;29263;48.172;11.484;2023-05-13T11:45:46;11.90;99.90
43665;DHT22;29263;48.172;11.484;2023-05-13T11:48:22;11.90;99.90
43665;DHT22;29263;48.172;11.484;2023-05-13T11:50:50;11.90;99.90
43665;DHT22;29263;48.172;11.484;2023-05-13T11:53:20;11.90;99.90
43665;DHT22;29263;48.172;11.484;2023-05-13T11:55:49;12.00;99.90
43665;DHT22;29263;48.172;11.484;2023-05-13T11:58:15;12.00;99.90
43665;DHT22;29263;48.172;11.484;2023-05-13T12:00:40;12.20;99.90
43665;DHT22;29263;48.172;11.484;2023-05-13T12:03:10;12.30;99.90
43665;DHT22;29263;48.172;11.484;2023-05-13T12:05:38;12.30;99.90
43665;DHT22;29263;48.172;11.484;2023-05-13T12:08:06;12.40;99.90
43665;DHT22;29263;48.172;11.484;2023-05-13T12:10:34;12.40;99.90
43665;DHT22;29263;48.172;11.484;2023-05-13T12:13:00;12.50;99.90
43665;DHT22;29263;48.172;11.484;2023-05-13T12:15:26;12.50;99.90
43665;DHT22;29263;48.172;11.484;2023-05-13T12:17:52;12.50;99.90
43665;DHT22;29263;48.172;11.484;2023-05-13T12:20:20;12.60;99.90
43665;DHT22;29263;48.172;11.484;2023-05-13T12:27:56;13.00;99.90
43665;DHT22;29263;48.172;11.484;2023-05-13T12:30:22;13.10;99.90
43665;DHT22;29263;48.172;11.484;2023-05-13T12:32:47;13.20;99.90
43665;DHT22;29263;48.172;11.484;2023-05-13T12:35:14;13.30;99.90
43665;DHT22;29263;48.172;11.484;2023-05-13T12:38:06;13.30;99.90
43665;DHT22;29263;48.172;11.484;2023-05-13T12:40:55;13.40;99.90
43665;DHT22;29263;48.172;11.484;2023-05-13T12:43:22;13.30;99.90
43665;DHT22;29263;48.172;11.484;2023-05-13T12:45:51;13.20;99.90
43665;DHT22;29263;48.172;11.484;2023-05-13T12:48:22;13.00;99.90
43665;DHT22;29263;48.172;11.484;2023-05-13T12:50:49;13.00;99.90
43665;DHT22;29263;48.172;11.484;2023-05-13T12:53:15;12.90;99.90
43665;DHT22;29263;48.172;11.484;2023-05-13T12:55:41;12.90;99.90
43665;DHT22;29263;48.172;11.484;2023-05-13T12:58:07;12.80;99.90
43665;DHT22;29263;48.172;11.484;2023-05-13T13:00:36;12.90;99.90
43665;DHT22;29263;48.172;11.484;2023-05-13T13:03:11;12.90;99.90
43665;DHT22;29263;48.172;11.484;2023-05-13T13:05:37;12.90;99.90
43665;DHT22;29263;48.172;11.484;2023-05-13T13:08:03;13.00;99.90
43665;DHT22;29263;48.172;11.484;2023-05-13T13:10:31;13.10;99.90
43665;DHT22;29263;48.172;11.484;2023-05-13T13:12:57;13.10;99.90
43665;DHT22;29263;48.172;11.484;2023-05-13T13:15:25;13.20;99.90
43665;DHT22;29263;48.172;11.484;2023-05-13T13:20:58;13.30;99.90
43665;DHT22;29263;48.172;11.484;2023-05-13T13:23:28;13.30;99.90
43665;DHT22;29263;48.172;11.484;2023-05-13T13:26:03;13.30;99.90
43665;DHT22;29263;48.172;11.484;2023-05-13T13:28:44;13.30;99.90
43665;DHT22;29263;48.172;11.484;2023-05-13T13:31:10;13.30;99.90
43665;DHT22;29263;48.172;11.484;2023-05-13T13:33:36;13.30;99.90
43665;DHT22;29263;48.172;11.484;2023-05-13T13:36:02;13.30;99.90
43665;DHT22;29263;48.172;11.484;2023-05-13T13:38:28;13.30;99.90
43665;DHT22;29263;48.172;11.484;2023-05-13T13:40:54;13.20;99.90
43665;DHT22;29263;48.172;11.484;2023-05-13T13:43:26;13.30;99.90
43665;DHT22;29263;48.172;11.484;2023-05-13T13:45:52;13.30;99.90
43665;DHT22;29263;48.172;11.484;2023-05-13T14:13:05;14.20;99.90
43665;DHT22;29263;48.172;11.484;2023-05-13T14:19:16;14.10;99.90
43665;DHT22;29263;48.172;11.484;2023-05-13T14:22:31;14.00;99.90
43665;DHT22;29263;48.172;11.484;2023-05-13T14:26:26;13.90;99.90
43665;DHT22;29263;48.172;11.484;2023-05-13T14:42:49;13.80;99.90
43665;DHT22;29263;48.172;11.484;2023-05-13T14:49:28;13.70;99.90
43665;DHT22;29263;48.172;11.484;2023-05-13T14:52:25;13.70;99.90
43665;DHT22;29263;48.172;11.484;2023-05-13T14:59:01;13.70;99.90
43665;DHT22;29263;48.172;11.484;2023-05-13T15:08:50;13.80;99.90
43665;DHT22;29263;48.172;11.484;2023-05-13T15:11:49;13.90;99.90
43665;DHT22;29263;48.172;11.484;2023-05-13T15:24:54;14.10;99.90
43665;DHT22;29263;48.172;11.484;2023-05-13T15:27:54;14.10;99.90
43665;DHT22;29263;48.172;11.484;2023-05-13T15:37:38;14.10;99.90
43665;DHT22;29263;48.172;11.484;2023-05-13T15:40:26;14.20;99.90
43665;DHT22;29263;48.172;11.484;2023-05-13T15:43:14;14.40;99.90
43665;DHT22;29263;48.172;11.484;2023-05-13T15:48:49;14.40;99.90
43665;DHT22;29263;48.172;11.484;2023-05-13T15:51:27;14.50;99.90
43665;DHT22;29263;48.172;11.484;2023-05-13T16:00:42;14.90;99.90
43665;DHT22;29263;48.172;11.484;2023-05-13T16:03:08;15.10;99.90
43665;DHT22;29263;48.172;11.484;2023-05-13T16:05:34;15.20;99.90
43665;DHT22;29263;48.172;11.484;2023-05-13T16:08:00;15.10;99.90
43665;DHT22;29263;48.172;11.484;2023-05-13T16:10:26;15.10;99.90
43665;DHT22;29263;48.172;11.484;2023-05-13T16:12:51;15.10;99.90
43665;DHT22;29263;48.172;11.484;2023-05-13T16:15:17;15.00;99.90
43665;DHT22;29263;48.172;11.484;2023-05-13T16:17:43;14.80;99.90
43665;DHT22;29263;48.172;11.484;2023-05-13T16:20:09;14.80;99.90
43665;DHT22;29263;48.172;11.484;2023-05-13T16:22:35;14.70;99.90
43665;DHT22;29263;48.172;11.484;2023-05-13T16:25:05;14.60;99.90
43665;DHT22;29263;48.172;11.484;2023-05-13T16:27:32;14.60;99.90
43665;DHT22;29263;48.172;11.484;2023-05-13T16:30:01;14.50;99.90
43665;DHT22;29263;48.172;11.484;2023-05-13T16:32:45;14.60;99.90
43665;DHT22;29263;48.172;11.484;2023-05-13T16:35:13;14.90;99.90
43665;DHT22;29263;48.172;11.484;2023-05-13T16:37:38;15.60;99.90
43665;DHT22;29263;48.172;11.484;2023-05-13T16:40:04;16.20;99.90
43665;DHT22;29263;48.172;11.484;2023-05-13T16:42:30;16.50;99.90
43665;DHT22;29263;48.172;11.484;2023-05-13T16:44:56;16.40;99.90
43665;DHT22;29263;48.172;11.484;2023-05-13T16:47:21;16.30;99.90
43665;DHT22;29263;48.172;11.484;2023-05-13T16:49:47;16.20;99.90
43665;DHT22;29263;48.172;11.484;2023-05-13T16:52:14;16.20;99.90
43665;DHT22;29263;48.172;11.484;2023-05-13T16:54:40;16.40;99.90
43665;DHT22;29263;48.172;11.484;2023-05-13T16:57:05;16.40;99.90
43665;DHT22;29263;48.172;11.484;2023-05-13T16:59:34;16.30;99.90
43665;DHT22;29263;48.172;11.484;2023-05-13T17:02:00;16.10;99.90
43665;DHT22;29263;48.172;11.484;2023-05-13T17:04:25;15.90;99.90
43665;DHT22;29263;48.172;11.484;2023-05-13T17:06:52;15.70;99.90
43665;DHT22;29263;48.172;11.484;2023-05-13T17:09:18;16.20;99.90
43665;DHT22;29263;48.172;11.484;2023-05-13T17:11:46;16.60;99.90
43665;DHT22;29263;48.172;11.484;2023-05-13T17:14:12;16.50;99.90